Time;durP1;ratioP1;P1;durP2;ratioP2;P2;SDS_P1;SDS_P2;PMS_P1;PMS_P2;Temp;Humidity;BMP_temperature;BMP_pressure;BME280_temperature;BME280_humidity;BME280_pressure;Samples;Min_cycle;Max_cycle;Signal;HPM_P1;HPM_P2
2021/11/23 00:01:07;;;;;;;41.70;22.50;;;;;;;3.73;75.73;99561.18;102875;1322;107839;-70
2021/11/23 00:03:35;;;;;;;41.40;21.70;;;;;;;3.68;75.50;99563.15;103122;1316;98583;-70
2021/11/23 00:06:03;;;;;;;40.50;22.60;;;;;;;3.64;75.58;99569.09;103124;1323;98566;-70
2021/11/23 00:08:31;;;;;;;48.50;25.40;;;;;;;3.59;75.62;99569.42;103122;1317;109324;-69
2021/11/23 00:10:59;;;;;;;41.20;21.80;;;;;;;3.55;75.72;99568.50;102877;1323;98007;-70
2021/11/23 00:13:27;;;;;;;40.30;22.30;;;;;;;3.53;75.64;99572.80;102952;1317;107851;-69
2021/11/23 00:15:55;;;;;;;41.40;22.80;;;;;;;3.50;75.73;99573.77;102980;1316;96992;-69
2021/11/23 00:18:23;;;;;;;40.70;22.60;;;;;;;3.47;75.54;99575.96;103131;1322;97889;-71
2021/11/23 00:20:51;;;;;;;43.80;24.30;;;;;;;3.42;75.58;99576.15;103061;1317;111516;-71
2021/11/23 00:23:19;;;;;;;38.00;20.90;;;;;;;3.40;75.58;99576.21;103082;1322;96482;-70
2021/11/23 00:25:48;;;;;;;38.40;21.20;;;;;;;3.36;75.71;99578.63;103013;1317;108247;-70
2021/11/23 00:28:16;;;;;;;41.30;21.70;;;;;;;3.34;75.81;99578.55;102968;1324;95388;-70
2021/11/23 00:30:46;;;;;;;38.70;22.30;;;;;;;3.33;75.69;99576.65;103068;1320;95403;-70
2021/11/23 00:33:21;;;;;;;41.90;21.80;;;;;;;3.31;76.05;99581.09;103057;1322;111855;-69
2021/11/23 00:35:53;;;;;;;41.40;22.30;;;;;;;3.31;75.73;99585.14;103099;1317;98499;-70
2021/11/23 00:38:21;;;;;;;40.80;23.00;;;;;;;3.30;75.86;99588.47;103074;1321;107874;-70
2021/11/23 00:40:49;;;;;;;40.20;21.30;;;;;;;3.32;75.95;99589.13;103121;1320;98015;-70
2021/11/23 00:43:16;;;;;;;39.20;21.00;;;;;;;3.32;75.74;99589.29;103008;1317;98040;-69
2021/11/23 00:45:44;;;;;;;40.40;23.20;;;;;;;3.31;75.79;99587.23;102930;1317;111556;-69
2021/11/23 00:48:12;;;;;;;40.80;21.90;;;;;;;3.32;75.55;99584.41;102857;1322;97683;-69
2021/11/23 00:50:40;;;;;;;38.70;21.60;;;;;;;3.31;76.03;99579.86;102837;1322;108288;-69
2021/11/23 00:53:10;;;;;;;39.00;22.50;;;;;;;3.32;75.92;99582.10;102878;1319;97914;-70
2021/11/23 00:55:37;;;;;;;38.90;21.50;;;;;;;3.34;75.92;99586.42;102953;1317;97881;-69
2021/11/23 00:58:05;;;;;;;39.30;21.20;;;;;;;3.36;75.89;99589.88;102889;1319;111345;-71
2021/11/23 01:00:37;;;;;;;42.10;21.90;;;;;;;3.35;75.77;99593.77;103125;1316;97909;-71
2021/11/23 01:03:05;;;;;;;37.80;20.80;;;;;;;3.32;76.05;99593.69;102875;1323;107926;-71
2021/11/23 01:05:33;;;;;;;41.60;21.60;;;;;;;3.31;75.99;99600.20;103080;1320;97915;-70
2021/11/23 01:08:01;;;;;;;38.70;21.20;;;;;;;3.27;75.65;99604.17;103090;1317;97900;-70
2021/11/23 01:10:31;;;;;;;40.30;21.90;;;;;;;3.22;75.93;99602.45;103079;1316;111481;-71
2021/11/23 01:12:59;;;;;;;38.90;22.00;;;;;;;3.19;76.11;99602.02;102916;1317;97746;-70
2021/11/23 01:15:27;;;;;;;39.20;21.40;;;;;;;3.18;75.93;99602.05;102904;1322;108953;-70
2021/11/23 01:17:54;;;;;;;39.60;21.80;;;;;;;3.16;75.79;99603.52;102938;1319;96604;-69
2021/11/23 01:20:23;;;;;;;35.80;20.20;;;;;;;3.14;75.99;99596.58;102887;1322;97902;-70
2021/11/23 01:22:54;;;;;;;40.00;20.70;;;;;;;3.13;76.06;99598.34;103076;1317;111068;-69
2021/11/23 01:25:22;;;;;;;38.80;21.20;;;;;;;3.14;76.12;99603.05;103093;1317;95956;-70
2021/11/23 01:27:53;;;;;;;40.10;21.00;;;;;;;3.14;76.19;99606.56;103064;1317;107647;-69
2021/11/23 01:30:24;;;;;;;38.30;21.00;;;;;;;3.15;75.87;99608.80;102963;1317;97960;-70
2021/11/23 01:32:52;;;;;;;37.60;21.30;;;;;;;3.18;76.37;99613.27;103064;1322;97907;-70
2021/11/23 01:35:23;;;;;;;42.80;21.90;;;;;;;3.21;76.30;99616.48;102919;1319;111055;-70
2021/11/23 01:37:52;;;;;;;38.50;22.10;;;;;;;3.22;76.05;99614.20;102988;1322;98364;-68
2021/11/23 01:40:22;;;;;;;37.30;21.00;;;;;;;3.23;76.04;99613.29;102862;1317;108425;-71
2021/11/23 01:42:50;;;;;;;41.30;23.60;;;;;;;3.22;76.46;99609.45;102830;1322;98005;-70
2021/11/23 01:45:18;;;;;;;39.10;21.30;;;;;;;3.23;76.15;99610.48;102902;1323;96495;-69
2021/11/23 01:47:46;;;;;;;42.50;22.90;;;;;;;3.22;75.92;99606.80;102852;1322;111574;-68
2021/11/23 01:50:15;;;;;;;47.00;24.00;;;;;;;3.20;76.11;99609.52;103055;1317;97901;-69
2021/11/23 01:52:47;;;;;;;38.80;22.10;;;;;;;3.18;76.08;99608.19;103061;1321;108071;-70
2021/11/23 01:55:18;;;;;;;38.90;23.00;;;;;;;3.16;75.86;99611.75;102868;1319;97997;-69
2021/11/23 01:57:47;;;;;;;44.60;24.70;;;;;;;3.12;75.83;99610.47;103024;1316;98024;-70
2021/11/23 02:00:16;;;;;;;45.50;25.50;;;;;;;3.08;76.00;99608.33;103078;1320;111084;-71
2021/11/23 02:02:47;;;;;;;48.10;26.20;;;;;;;3.06;76.23;99605.93;103017;1318;95844;-70
2021/11/23 02:05:15;;;;;;;46.60;27.40;;;;;;;3.06;76.28;99602.09;102916;1316;106529;-71
2021/11/23 02:07:43;;;;;;;49.60;28.80;;;;;;;3.06;76.19;99601.38;102972;1316;95419;-70
2021/11/23 02:10:13;;;;;;;52.10;29.60;;;;;;;3.08;76.18;99602.88;103061;1316;97898;-69
2021/11/23 02:12:44;;;;;;;49.10;27.00;;;;;;;3.11;76.06;99609.98;103063;1316;111241;-71
2021/11/23 02:15:12;;;;;;;47.60;27.40;;;;;;;3.13;76.07;99608.52;103022;1316;95944;-70
2021/11/23 02:17:44;;;;;;;46.00;27.50;;;;;;;3.15;76.11;99604.08;102917;1319;106564;-71
2021/11/23 02:20:17;;;;;;;50.00;27.00;;;;;;;3.17;76.19;99604.89;102942;1322;95209;-70
2021/11/23 02:22:49;;;;;;;50.70;28.10;;;;;;;3.15;76.35;99606.70;102903;1317;97941;-71
2021/11/23 02:25:18;;;;;;;51.90;27.10;;;;;;;3.14;76.33;99608.83;102952;1319;111492;-69
2021/11/23 02:27:50;;;;;;;43.20;23.50;;;;;;;3.13;76.26;99605.18;102992;1320;97918;-71
2021/11/23 02:30:18;;;;;;;46.30;25.60;;;;;;;3.11;76.09;99605.25;102900;1317;107758;-70
2021/11/23 02:32:54;;;;;;;45.10;25.00;;;;;;;3.09;76.09;99605.48;103093;1316;95311;-70
2021/11/23 02:35:24;;;;;;;47.50;26.10;;;;;;;3.07;76.21;99606.25;103008;1323;97997;-71
2021/11/23 02:37:55;;;;;;;43.50;25.40;;;;;;;3.06;76.40;99613.48;102967;1317;111706;-70
2021/11/23 02:40:25;;;;;;;42.80;22.80;;;;;;;3.06;76.47;99611.03;102683;1325;95285;-70
2021/11/23 02:42:56;;;;;;;42.80;24.20;;;;;;;3.05;76.24;99609.84;102906;1322;107876;-70
2021/11/23 02:45:27;;;;;;;40.40;22.90;;;;;;;3.02;76.43;99612.38;103031;1319;95298;-69
2021/11/23 02:47:59;;;;;;;43.70;23.10;;;;;;;3.00;76.08;99617.19;103063;1322;97934;-71
2021/11/23 02:50:31;;;;;;;40.50;21.40;;;;;;;2.94;76.08;99621.56;102959;1320;111446;-71
2021/11/23 02:52:59;;;;;;;40.80;20.70;;;;;;;2.91;76.19;99626.76;102789;1320;97860;-70
2021/11/23 02:55:35;;;;;;;39.00;20.70;;;;;;;2.88;76.07;99626.84;102905;1317;107786;-70
2021/11/23 02:58:10;;;;;;;41.50;22.20;;;;;;;2.85;76.25;99627.48;102864;1322;96480;-69
2021/11/23 03:00:40;;;;;;;40.30;20.20;;;;;;;2.82;76.09;99636.31;103023;1322;97943;-71
2021/11/23 03:03:09;;;;;;;39.00;20.90;;;;;;;2.79;76.04;99641.48;103066;1317;109852;-70
2021/11/23 03:05:41;;;;;;;36.50;20.50;;;;;;;2.75;76.40;99645.29;102970;1322;97814;-70
2021/11/23 03:08:09;;;;;;;37.10;20.10;;;;;;;2.72;75.93;99645.40;102907;1319;107944;-71
2021/11/23 03:10:40;;;;;;;37.80;19.60;;;;;;;2.69;76.33;99646.18;102876;1319;97930;-70
2021/11/23 03:13:08;;;;;;;41.80;21.10;;;;;;;2.67;76.36;99652.00;103014;1317;97873;-71
2021/11/23 03:15:36;;;;;;;35.40;19.80;;;;;;;2.65;76.16;99646.66;102929;1322;111605;-69
2021/11/23 03:18:04;;;;;;;40.10;21.10;;;;;;;2.63;76.34;99648.13;102895;1317;97670;-70
2021/11/23 03:20:36;;;;;;;36.20;17.50;;;;;;;2.62;76.04;99645.36;103057;1316;108429;-70
2021/11/23 03:23:06;;;;;;;41.30;22.90;;;;;;;2.61;76.16;99642.92;102982;1316;97912;-70
2021/11/23 03:25:34;;;;;;;37.20;20.80;;;;;;;2.60;75.98;99644.54;103063;1317;95297;-70
2021/11/23 03:28:02;;;;;;;38.70;20.60;;;;;;;2.59;76.37;99649.63;103099;1317;111501;-70
2021/11/23 03:30:34;;;;;;;37.30;19.70;;;;;;;2.59;76.14;99655.61;103042;1319;97915;-69
2021/11/23 03:33:07;;;;;;;37.90;20.00;;;;;;;2.56;76.44;99660.23;102871;1317;105488;-69
2021/11/23 03:35:40;;;;;;;37.30;19.70;;;;;;;2.51;75.89;99662.31;103069;1322;95200;-70
2021/11/23 03:38:12;;;;;;;32.50;18.00;;;;;;;2.49;76.14;99662.36;102936;1322;97898;-70
2021/11/23 03:40:45;;;;;;;41.90;21.00;;;;;;;2.47;76.16;99663.63;103070;1317;110264;-71
2021/11/23 03:43:16;;;;;;;38.10;21.70;;;;;;;2.45;76.27;99664.07;102995;1322;97761;-69
2021/11/23 03:45:47;;;;;;;42.90;22.20;;;;;;;2.41;76.17;99666.27;103098;1317;107020;-69
2021/11/23 03:48:15;;;;;;;43.80;22.90;;;;;;;2.39;76.21;99668.27;102918;1317;98023;-69
2021/11/23 03:50:43;;;;;;;41.40;21.00;;;;;;;2.38;76.31;99664.80;102914;1320;98011;-69
2021/11/23 03:53:11;;;;;;;36.40;21.60;;;;;;;2.38;76.26;99659.89;102921;1317;111258;-70
2021/11/23 03:55:40;;;;;;;42.50;22.00;;;;;;;2.36;76.44;99663.08;103031;1316;97924;-70
2021/11/23 03:58:11;;;;;;;44.00;24.20;;;;;;;2.37;76.31;99663.59;102973;1318;107757;-70
2021/11/23 04:00:39;;;;;;;44.30;24.30;;;;;;;2.35;76.38;99668.73;103156;1314;96489;-69
2021/11/23 04:03:10;;;;;;;43.70;24.70;;;;;;;2.35;76.60;99668.39;103194;1316;95370;-71
2021/11/23 04:05:40;;;;;;;43.70;23.80;;;;;;;2.35;76.45;99664.52;102909;1322;111703;-69
2021/11/23 04:08:08;;;;;;;46.50;25.80;;;;;;;2.35;76.46;99667.52;102971;1317;97860;-69
2021/11/23 04:10:35;;;;;;;48.50;25.90;;;;;;;2.36;76.37;99671.16;102921;1317;107834;-69
2021/11/23 04:13:04;;;;;;;44.10;25.90;;;;;;;2.34;76.39;99673.29;102935;1317;98521;-69
2021/11/23 04:15:35;;;;;;;45.70;26.20;;;;;;;2.34;76.34;99670.87;102882;1317;97927;-70
2021/11/23 04:18:03;;;;;;;43.90;24.70;;;;;;;2.33;76.45;99666.86;103142;1316;111511;-70
2021/11/23 04:20:34;;;;;;;49.40;27.20;;;;;;;2.30;76.50;99662.23;103094;1317;97896;-69
2021/11/23 04:23:06;;;;;;;49.70;26.30;;;;;;;2.31;76.44;99663.06;102854;1317;106706;-70
2021/11/23 04:25:38;;;;;;;50.40;26.60;;;;;;;2.30;76.26;99662.05;102929;1322;95941;-70
2021/11/23 04:28:05;;;;;;;47.80;25.50;;;;;;;2.28;76.41;99658.08;102918;1317;96491;-71
2021/11/23 04:30:33;;;;;;;48.80;27.20;;;;;;;2.28;76.17;99658.95;102996;1319;112076;-71
2021/11/23 04:33:03;;;;;;;44.50;25.60;;;;;;;2.28;76.42;99655.64;103092;1321;98002;-70
2021/11/23 04:35:34;;;;;;;45.90;26.50;;;;;;;2.28;76.48;99652.30;102956;1322;107938;-73
2021/11/23 04:38:02;;;;;;;48.00;26.20;;;;;;;2.29;76.75;99650.69;102807;1320;97074;-72
2021/11/23 04:40:30;;;;;;;46.70;26.20;;;;;;;2.31;76.49;99651.17;102946;1319;97876;-72
2021/11/23 04:42:58;;;;;;;41.40;23.10;;;;;;;2.32;76.68;99648.70;102924;1319;111951;-72
2021/11/23 04:45:26;;;;;;;42.20;24.10;;;;;;;2.29;76.48;99640.02;103068;1317;98087;-71
2021/11/23 04:47:57;;;;;;;44.10;25.20;;;;;;;2.29;76.66;99638.64;102890;1316;107848;-72
2021/11/23 04:50:27;;;;;;;45.50;24.60;;;;;;;2.28;76.26;99638.80;102963;1317;98511;-70
2021/11/23 04:52:55;;;;;;;41.30;24.00;;;;;;;2.27;76.52;99639.20;102972;1316;97908;-70
2021/11/23 04:55:25;;;;;;;43.10;23.70;;;;;;;2.30;76.66;99638.07;102974;1319;110630;-71
2021/11/23 04:57:52;;;;;;;43.70;25.00;;;;;;;2.33;76.81;99642.71;102965;1319;96607;-71
2021/11/23 05:00:21;;;;;;;46.40;26.50;;;;;;;2.33;76.76;99639.20;102907;1319;107838;-71
2021/11/23 05:02:48;;;;;;;43.10;24.60;;;;;;;2.33;76.52;99641.48;102964;1316;95621;-70
2021/11/23 05:05:16;;;;;;;42.60;23.90;;;;;;;2.33;76.74;99645.88;103002;1317;96438;-71
2021/11/23 05:07:48;;;;;;;39.50;24.10;;;;;;;2.31;76.53;99644.88;102909;1320;111067;-70
2021/11/23 05:10:16;;;;;;;39.90;23.00;;;;;;;2.29;76.57;99644.55;102990;1319;99105;-72
2021/11/23 05:12:45;;;;;;;41.90;23.70;;;;;;;2.28;76.27;99645.66;103090;1317;106856;-71
2021/11/23 05:15:13;;;;;;;41.90;22.40;;;;;;;2.23;76.38;99643.69;103010;1316;97979;-71
2021/11/23 05:17:44;;;;;;;44.00;23.50;;;;;;;2.23;76.47;99643.01;102998;1316;95222;-71
2021/11/23 05:20:13;;;;;;;40.10;22.70;;;;;;;2.19;76.38;99640.48;103025;1317;111488;-71
2021/11/23 05:22:41;;;;;;;41.80;23.80;;;;;;;2.15;76.42;99635.88;102975;1317;97963;-72
2021/11/23 05:25:12;;;;;;;41.40;22.30;;;;;;;2.14;76.26;99644.49;103033;1317;107799;-71
2021/11/23 05:27:41;;;;;;;36.60;20.80;;;;;;;2.13;76.64;99646.94;103046;1320;98005;-72
2021/11/23 05:30:15;;;;;;;38.40;21.10;;;;;;;2.12;76.79;99647.35;103009;1316;97904;-71
2021/11/23 05:32:47;;;;;;;37.90;21.70;;;;;;;2.10;76.37;99646.70;102996;1318;110616;-70
2021/11/23 05:35:14;;;;;;;40.40;23.30;;;;;;;2.11;76.37;99647.73;102884;1317;98016;-69
2021/11/23 05:37:42;;;;;;;38.40;21.00;;;;;;;2.09;76.62;99650.05;103035;1316;108702;-71
2021/11/23 05:40:11;;;;;;;39.20;22.30;;;;;;;2.09;76.51;99651.11;103050;1316;96412;-70
2021/11/23 05:42:40;;;;;;;37.40;20.40;;;;;;;2.10;76.52;99649.86;103110;1316;97906;-72
2021/11/23 05:45:13;;;;;;;38.60;21.10;;;;;;;2.11;76.62;99651.76;102896;1318;112315;-71
2021/11/23 05:47:43;;;;;;;38.50;21.50;;;;;;;2.11;76.76;99654.04;102889;1320;97927;-73
2021/11/23 05:50:11;;;;;;;39.70;21.00;;;;;;;2.09;76.71;99663.52;102922;1318;107438;-73
2021/11/23 05:52:41;;;;;;;38.50;20.40;;;;;;;2.08;76.49;99664.42;102985;1319;95948;-71
2021/11/23 05:55:09;;;;;;;35.50;19.40;;;;;;;2.08;76.47;99674.04;102971;1320;97871;-74
2021/11/23 05:57:37;;;;;;;39.00;20.20;;;;;;;2.08;76.57;99677.36;102889;1319;115100;-72
2021/11/23 06:00:07;;;;;;;37.20;19.40;;;;;;;2.08;76.53;99680.52;102963;1319;97877;-73
2021/11/23 06:02:35;;;;;;;35.00;19.30;;;;;;;2.07;76.39;99678.45;102978;1322;108558;-73
2021/11/23 06:05:03;;;;;;;34.20;18.70;;;;;;;2.07;76.71;99681.42;103001;1316;97909;-73
2021/11/23 06:07:31;;;;;;;36.50;20.50;;;;;;;2.07;76.62;99691.02;102998;1316;98479;-72
2021/11/23 06:09:59;;;;;;;37.10;20.60;;;;;;;2.07;76.34;99693.11;102943;1316;111496;-73
2021/11/23 06:12:30;;;;;;;37.60;19.70;;;;;;;2.07;76.33;99691.73;102900;1316;98509;-73
2021/11/23 06:15:03;;;;;;;37.00;21.00;;;;;;;2.08;76.61;99697.13;103016;1316;108544;-72
2021/11/23 06:17:35;;;;;;;37.20;20.70;;;;;;;2.07;76.68;99697.51;102994;1318;98209;-73
2021/11/23 06:20:07;;;;;;;38.90;21.20;;;;;;;2.06;76.77;99698.59;103052;1317;95293;-73
2021/11/23 06:22:37;;;;;;;40.20;22.40;;;;;;;2.04;76.57;99699.00;102918;1316;111516;-73
2021/11/23 06:25:07;;;;;;;36.40;19.20;;;;;;;2.05;76.95;99702.64;102967;1316;97908;-73
2021/11/23 06:27:40;;;;;;;36.30;21.30;;;;;;;2.06;76.64;99705.74;103033;1316;107918;-75
2021/11/23 06:30:08;;;;;;;42.00;22.90;;;;;;;2.08;76.59;99710.07;103002;1316;98114;-74
2021/11/23 06:32:37;;;;;;;39.00;22.10;;;;;;;2.07;76.49;99717.63;102951;1318;98026;-74
2021/11/23 06:35:05;;;;;;;35.00;20.80;;;;;;;2.06;76.77;99720.29;103054;1322;111562;-73
2021/11/23 06:37:33;;;;;;;39.80;21.50;;;;;;;2.05;76.66;99722.58;102783;1322;96759;-73
2021/11/23 06:40:06;;;;;;;36.80;19.60;;;;;;;2.04;76.60;99725.23;102950;1316;107619;-73
2021/11/23 06:42:38;;;;;;;37.80;20.70;;;;;;;2.04;76.86;99727.52;103003;1316;98399;-73
2021/11/23 06:45:08;;;;;;;35.70;18.60;;;;;;;2.05;76.66;99732.04;103093;1319;97924;-72
2021/11/23 06:47:36;;;;;;;38.20;20.50;;;;;;;2.05;76.68;99731.33;103083;1316;111572;-73
2021/11/23 06:50:09;;;;;;;35.90;19.70;;;;;;;2.04;76.84;99729.42;103053;1319;97521;-73
2021/11/23 06:52:36;;;;;;;34.60;20.20;;;;;;;2.05;76.58;99728.70;103026;1316;107734;-74
2021/11/23 06:55:07;;;;;;;37.70;19.00;;;;;;;2.09;76.80;99732.98;102875;1318;98023;-72
2021/11/23 06:57:36;;;;;;;35.40;19.90;;;;;;;2.11;76.76;99733.63;103036;1317;98238;-71
2021/11/23 07:00:08;;;;;;;37.10;19.30;;;;;;;2.11;76.50;99730.31;102966;1316;111564;-70
2021/11/23 07:02:36;;;;;;;38.30;18.40;;;;;;;2.12;76.84;99732.90;102988;1317;97907;-71
2021/11/23 07:05:04;;;;;;;37.80;19.90;;;;;;;2.12;76.88;99731.85;103069;1323;108016;-72
2021/11/23 07:07:32;;;;;;;33.70;18.70;;;;;;;2.12;76.55;99733.63;103119;1323;96566;-72
2021/11/23 07:10:06;;;;;;;34.00;18.20;;;;;;;2.14;76.85;99733.20;102995;1319;95971;-71
2021/11/23 07:12:54;;;;;;;34.00;17.00;;;;;;;2.20;76.77;99730.94;103002;1319;111373;-72
2021/11/23 07:15:22;;;;;;;33.30;18.00;;;;;;;2.23;76.61;99732.43;103150;1321;96576;-72
2021/11/23 07:17:50;;;;;;;32.70;17.40;;;;;;;2.24;76.74;99732.91;103107;1316;108883;-72
2021/11/23 07:20:18;;;;;;;32.30;16.90;;;;;;;2.23;76.56;99727.87;102954;1323;97944;-72
2021/11/23 07:22:46;;;;;;;33.00;16.40;;;;;;;2.26;76.69;99730.59;103021;1321;98034;-72
2021/11/23 07:25:14;;;;;;;33.10;16.80;;;;;;;2.29;76.83;99728.59;103010;1316;112297;-73
2021/11/23 07:27:43;;;;;;;31.60;15.60;;;;;;;2.33;76.55;99727.09;103141;1320;96692;-72
2021/11/23 07:30:12;;;;;;;29.70;15.40;;;;;;;2.36;76.68;99722.08;103075;1318;108743;-71
2021/11/23 07:32:40;;;;;;;30.40;13.50;;;;;;;2.39;76.59;99718.52;102866;1316;97909;-71
2021/11/23 07:35:09;;;;;;;28.60;14.10;;;;;;;2.38;76.51;99712.06;103013;1318;97976;-73
2021/11/23 07:37:40;;;;;;;27.20;12.80;;;;;;;2.39;76.60;99710.79;102966;1317;111491;-72
2021/11/23 07:40:15;;;;;;;28.50;14.30;;;;;;;2.40;76.35;99716.21;103108;1317;97992;-73
2021/11/23 07:42:48;;;;;;;29.10;13.10;;;;;;;2.37;76.59;99709.62;102986;1320;107851;-73
2021/11/23 07:45:41;;;;;;;24.30;12.50;;;;;;;2.36;76.09;99706.48;102952;1316;97908;-73
2021/11/23 07:48:14;;;;;;;24.60;11.00;;;;;;;2.37;76.70;99707.69;103146;1317;97931;-73
2021/11/23 07:50:47;;;;;;;26.40;11.60;;;;;;;2.40;76.51;99714.48;102860;1325;111170;-72
2021/11/23 07:53:15;;;;;;;25.80;11.30;;;;;;;2.43;76.24;99713.51;103091;1316;98018;-73
2021/11/23 07:55:48;;;;;;;29.00;11.10;;;;;;;2.48;76.17;99720.87;102930;1316;108601;-72
2021/11/23 07:58:25;;;;;;;26.60;10.90;;;;;;;2.51;76.31;99720.79;102939;1322;98018;-72
2021/11/23 08:00:53;;;;;;;24.10;10.90;;;;;;;2.53;76.22;99723.69;103072;1323;97992;-71
2021/11/23 08:03:26;;;;;;;23.80;10.00;;;;;;;2.54;76.13;99721.23;103119;1320;111414;-72
2021/11/23 08:05:53;;;;;;;23.10;9.50;;;;;;;2.60;76.43;99722.45;103065;1323;97915;-72
2021/11/23 08:08:22;;;;;;;22.50;9.80;;;;;;;2.65;76.15;99725.79;103007;1316;107848;-72
2021/11/23 08:10:50;;;;;;;24.00;10.60;;;;;;;2.65;76.12;99725.10;102951;1319;98675;-72
2021/11/23 08:13:18;;;;;;;23.00;10.70;;;;;;;2.64;76.34;99723.05;102963;1319;97006;-73
2021/11/23 08:15:46;;;;;;;23.10;9.70;;;;;;;2.63;76.28;99727.27;102981;1322;111508;-73
2021/11/23 08:18:13;;;;;;;20.80;9.20;;;;;;;2.62;76.14;99730.27;103061;1316;97845;-72
2021/11/23 08:20:43;;;;;;;22.70;9.50;;;;;;;2.60;76.14;99724.02;102989;1319;107888;-72
2021/11/23 08:23:11;;;;;;;21.20;8.60;;;;;;;2.59;75.96;99722.84;102960;1316;95917;-72
2021/11/23 08:25:46;;;;;;;19.50;7.60;;;;;;;2.57;76.02;99721.86;102972;1319;96674;-71
2021/11/23 08:28:18;;;;;;;18.80;7.90;;;;;;;2.57;76.25;99715.55;103146;1321;109733;-72
2021/11/23 08:30:47;;;;;;;18.50;7.10;;;;;;;2.64;76.03;99717.61;103156;1316;97892;-71
2021/11/23 08:33:19;;;;;;;19.40;7.80;;;;;;;2.76;76.10;99722.52;103034;1316;107880;-72
2021/11/23 08:35:51;;;;;;;18.00;7.20;;;;;;;2.86;76.33;99725.70;102949;1319;98124;-72
2021/11/23 08:38:24;;;;;;;22.00;7.70;;;;;;;2.97;76.28;99725.21;102978;1316;97901;-72
2021/11/23 08:40:52;;;;;;;17.50;7.10;;;;;;;3.09;76.43;99725.35;102936;1317;112417;-73
2021/11/23 08:43:24;;;;;;;14.00;5.70;;;;;;;3.22;76.23;99728.13;103066;1317;97915;-74
2021/11/23 08:45:52;;;;;;;17.40;5.60;;;;;;;3.30;75.94;99726.30;103019;1319;107851;-70
2021/11/23 08:48:20;;;;;;;16.70;5.80;;;;;;;3.32;75.76;99727.45;102991;1319;98075;-73
2021/11/23 08:50:48;;;;;;;15.70;5.60;;;;;;;3.35;75.95;99728.91;103174;1316;95274;-73
2021/11/23 08:53:16;;;;;;;14.30;5.20;;;;;;;3.40;75.61;99730.71;102937;1322;109802;-72
2021/11/23 08:55:44;;;;;;;14.20;5.60;;;;;;;3.41;75.53;99736.45;102988;1319;97915;-73
2021/11/23 08:58:14;;;;;;;14.00;5.50;;;;;;;3.40;75.50;99727.55;103001;1316;107933;-72
2021/11/23 09:00:43;;;;;;;15.50;5.10;;;;;;;3.42;75.36;99725.89;102930;1319;97772;-73
2021/11/23 09:03:15;;;;;;;15.00;5.60;;;;;;;3.55;75.48;99729.33;102980;1319;95901;-72
2021/11/23 09:05:51;;;;;;;15.50;5.70;;;;;;;3.85;75.48;99716.90;102911;1319;111167;-72
2021/11/23 09:08:24;;;;;;;16.10;5.30;;;;;;;4.22;75.39;99713.00;102998;1316;97834;-72
2021/11/23 09:10:51;;;;;;;13.80;4.80;;;;;;;4.78;75.34;99708.27;103055;1316;107819;-72
2021/11/23 09:13:24;;;;;;;14.00;4.90;;;;;;;5.26;75.06;99710.11;102926;1319;97960;-73
2021/11/23 09:15:55;;;;;;;17.80;5.30;;;;;;;5.55;75.16;99714.21;103090;1316;96043;-72
2021/11/23 09:18:23;;;;;;;13.50;4.60;;;;;;;5.62;74.98;99705.29;102985;1319;111494;-73
2021/11/23 09:20:50;;;;;;;14.10;5.10;;;;;;;5.63;74.92;99704.02;102999;1316;98013;-72
2021/11/23 09:23:18;;;;;;;10.90;4.30;;;;;;;5.73;75.05;99706.41;103002;1319;107801;-72
2021/11/23 09:25:51;;;;;;;8.70;4.00;;;;;;;5.87;75.06;99707.79;103130;1316;98043;-72
2021/11/23 09:28:19;;;;;;;11.20;4.40;;;;;;;5.90;74.88;99709.20;103049;1319;95206;-73
2021/11/23 09:30:47;;;;;;;11.00;4.00;;;;;;;5.87;74.74;99713.05;103043;1319;111430;-71
2021/11/23 09:33:16;;;;;;;8.60;3.80;;;;;;;5.92;74.80;99712.67;102974;1319;98024;-71
2021/11/23 09:35:49;;;;;;;11.40;3.70;;;;;;;5.86;74.48;99707.27;103029;1312;107750;-71
2021/11/23 09:38:16;;;;;;;12.40;3.30;;;;;;;5.82;74.36;99707.29;103142;1314;97931;-71
2021/11/23 09:40:44;;;;;;;6.70;3.20;;;;;;;5.75;74.17;99709.33;103198;1316;97951;-72
2021/11/23 09:43:12;;;;;;;10.40;3.90;;;;;;;5.69;74.21;99716.28;103145;1322;111492;-72
2021/11/23 09:45:45;;;;;;;9.40;3.20;;;;;;;5.66;74.26;99715.86;103132;1316;95342;-72
2021/11/23 09:48:13;;;;;;;9.10;3.30;;;;;;;5.60;74.09;99707.65;103098;1322;107512;-73
2021/11/23 09:50:44;;;;;;;10.90;3.80;;;;;;;5.64;74.09;99708.20;103062;1316;97980;-74
2021/11/23 09:53:14;;;;;;;11.60;3.40;;;;;;;5.71;73.89;99701.77;102960;1318;95262;-72
2021/11/23 09:55:42;;;;;;;7.80;3.20;;;;;;;5.76;73.88;99696.11;102916;1319;110559;-73
2021/11/23 09:58:11;;;;;;;10.40;3.30;;;;;;;5.87;73.93;99697.35;102949;1316;97897;-73
2021/11/23 10:00:44;;;;;;;11.00;3.20;;;;;;;6.02;73.68;99694.65;103093;1316;108642;-72
2021/11/23 10:03:26;;;;;;;9.40;3.20;;;;;;;6.09;73.75;99696.45;103086;1316;95367;-73
2021/11/23 10:06:12;;;;;;;9.60;3.10;;;;;;;5.99;73.01;99703.90;102970;1319;97940;-72
2021/11/23 10:08:43;;;;;;;7.90;2.80;;;;;;;5.80;73.10;99693.08;103085;1316;113567;-72
2021/11/23 10:11:20;;;;;;;9.30;3.30;;;;;;;5.75;73.29;99688.56;103087;1316;97575;-73
2021/11/23 10:13:51;;;;;;;8.90;3.20;;;;;;;5.69;73.11;99688.48;103058;1316;108050;-72
2021/11/23 10:16:21;;;;;;;7.50;2.90;;;;;;;5.53;72.60;99687.20;103060;1320;95424;-73
2021/11/23 10:18:52;;;;;;;7.30;3.00;;;;;;;5.35;71.90;99686.34;103106;1322;98017;-73
2021/11/23 10:21:26;;;;;;;5.80;2.60;;;;;;;5.21;71.98;99675.48;102997;1317;111614;-73
2021/11/23 10:23:57;;;;;;;8.00;2.90;;;;;;;5.25;72.06;99674.10;103134;1321;98024;-73
2021/11/23 10:26:28;;;;;;;9.40;3.20;;;;;;;5.33;71.93;99667.10;103128;1316;108293;-74
2021/11/23 10:29:02;;;;;;;4.70;2.50;;;;;;;5.42;71.90;99660.94;103111;1317;97856;-72
2021/11/23 10:31:37;;;;;;;8.80;3.50;;;;;;;5.46;71.47;99656.54;102942;1319;98047;-72
2021/11/23 10:34:09;;;;;;;6.40;3.00;;;;;;;5.57;71.76;99654.84;102980;1319;111670;-72
2021/11/23 10:36:43;;;;;;;8.10;2.60;;;;;;;5.72;71.65;99657.73;103131;1317;98034;-73
2021/11/23 10:39:20;;;;;;;7.10;3.10;;;;;;;5.81;71.50;99658.72;103118;1316;107853;-72
2021/11/23 10:41:56;;;;;;;7.10;2.90;;;;;;;5.87;71.11;99651.29;103105;1316;98032;-73
2021/11/23 10:44:31;;;;;;;8.20;3.10;;;;;;;5.82;70.76;99647.27;102998;1316;97584;-73
2021/11/23 10:47:03;;;;;;;6.80;3.10;;;;;;;5.84;70.88;99640.33;103069;1319;111971;-72
2021/11/23 10:49:36;;;;;;;8.50;3.30;;;;;;;5.86;70.80;99640.04;103008;1316;97752;-73
2021/11/23 10:52:05;;;;;;;8.80;3.60;;;;;;;5.95;70.51;99642.64;102882;1316;210803;-73
2021/11/23 10:54:34;;;;;;;11.60;3.70;;;;;;;5.99;70.64;99637.39;102926;1319;99048;-73
2021/11/23 10:57:09;;;;;;;10.10;4.20;;;;;;;6.10;70.69;99642.73;102919;1319;97970;-73
2021/11/23 10:59:39;;;;;;;9.20;4.30;;;;;;;6.07;70.23;99638.79;102871;1323;111608;-73
2021/11/23 11:02:08;;;;;;;11.40;4.10;;;;;;;6.01;69.44;99643.12;102963;1317;95270;-75
2021/11/23 11:04:41;;;;;;;10.10;4.30;;;;;;;6.03;69.58;99646.71;103115;1319;107859;-73
2021/11/23 11:07:11;;;;;;;11.80;3.90;;;;;;;6.06;69.34;99650.63;103106;1316;98031;-73
2021/11/23 11:09:41;;;;;;;10.30;4.40;;;;;;;6.00;69.28;99642.98;103031;1318;98651;-73
2021/11/23 11:12:11;;;;;;;10.30;4.30;;;;;;;5.95;69.27;99645.28;102949;1316;111577;-74
2021/11/23 11:14:44;;;;;;;12.20;4.50;;;;;;;5.92;69.26;99649.28;103022;1317;97982;-73
2021/11/23 11:17:13;;;;;;;9.40;4.10;;;;;;;5.76;67.91;99648.74;103090;1317;107950;-73
2021/11/23 11:19:46;;;;;;;10.30;3.80;;;;;;;5.53;67.78;99645.17;103132;1317;97999;-73
2021/11/23 11:22:19;;;;;;;11.50;4.20;;;;;;;5.37;68.26;99640.88;103061;1316;96445;-73
2021/11/23 11:27:48;;;;;;;9.90;3.80;;;;;;;5.35;68.56;99634.83;103131;1316;97104;-72
2021/11/23 11:30:37;;;;;;;12.00;4.20;;;;;;;5.36;67.99;99641.98;103148;1317;106864;-74
2021/11/23 11:33:06;;;;;;;11.70;4.20;;;;;;;5.30;67.81;99635.55;102997;1317;97820;-74